createdAt,value
2016-06-17T00:00:56.354Z,989.74
2016-06-17T00:01:56.373Z,989.77
2016-06-17T00:02:56.408Z,989.81
2016-06-17T00:03:56.426Z,989.82
2016-06-17T00:04:56.461Z,989.86
2016-06-17T00:05:56.559Z,989.86
2016-06-17T00:06:56.515Z,989.87
2016-06-17T00:07:56.534Z,989.83
2016-06-17T00:08:56.569Z,989.82
2016-06-17T00:09:56.588Z,989.79
2016-06-17T00:10:56.623Z,989.75
2016-06-17T00:11:56.642Z,989.73
2016-06-17T00:12:56.677Z,989.73
2016-06-17T00:13:56.696Z,989.72
2016-06-17T00:14:56.730Z,989.74
2016-06-17T00:15:56.749Z,989.72
2016-06-17T00:16:56.769Z,989.74
2016-06-17T00:17:56.803Z,989.75
2016-06-17T00:18:56.822Z,989.73
2016-06-17T00:19:56.857Z,989.71
2016-06-17T00:20:56.876Z,989.68
2016-06-17T00:21:56.895Z,989.65
2016-06-17T00:22:56.930Z,989.64
2016-06-17T00:23:56.949Z,989.64
2016-06-17T00:24:56.984Z,989.59
2016-06-17T00:25:57.019Z,989.59
2016-06-17T00:26:57.037Z,989.58
2016-06-17T00:27:57.057Z,989.59
2016-06-17T00:28:57.091Z,989.58
2016-06-17T00:29:57.110Z,989.53
2016-06-17T00:30:57.145Z,989.53
2016-06-17T00:31:57.164Z,989.51
2016-06-17T00:32:57.199Z,989.55
2016-06-17T00:33:57.218Z,989.57
2016-06-17T00:34:57.237Z,989.53
2016-06-17T00:35:57.272Z,989.51
2016-06-17T00:36:57.291Z,989.51
2016-06-17T00:37:57.325Z,989.49
2016-06-17T00:38:57.345Z,989.42
2016-06-17T00:39:57.364Z,989.42
2016-06-17T00:40:57.398Z,989.41
2016-06-17T00:41:57.433Z,989.4
2016-06-17T00:42:57.453Z,989.43
2016-06-17T00:43:57.471Z,989.4
2016-06-17T00:44:57.506Z,989.43
2016-06-17T00:45:57.524Z,989.43
2016-06-17T00:46:57.560Z,989.44
2016-06-17T00:47:57.579Z,989.47
2016-06-17T00:48:57.629Z,989.44
2016-06-17T00:49:57.632Z,989.4
2016-06-17T00:50:57.666Z,989.39
2016-06-17T00:51:57.685Z,989.35
2016-06-17T00:52:57.719Z,989.36
2016-06-17T00:53:57.738Z,989.39
2016-06-17T00:54:57.756Z,989.34
2016-06-17T00:55:57.791Z,989.31
2016-06-17T00:56:57.809Z,989.29
2016-06-17T00:57:57.845Z,989.31
2016-06-17T00:58:57.863Z,989.32
2016-06-17T00:59:57.898Z,989.29
2016-06-17T01:00:57.917Z,989.3
2016-06-17T01:01:57.936Z,989.28
2016-06-17T01:02:57.971Z,989.2
2016-06-17T01:03:57.990Z,989.12
2016-06-17T01:04:58.024Z,989.04
2016-06-17T01:05:58.043Z,988.93
2016-06-17T01:06:58.079Z,988.94
2016-06-17T01:07:58.097Z,988.91
2016-06-17T01:08:58.117Z,988.93
2016-06-17T01:09:58.151Z,988.95
2016-06-17T01:10:58.170Z,988.96
2016-06-17T01:11:58.205Z,988.99
2016-06-17T01:12:58.224Z,988.98
2016-06-17T01:13:58.258Z,988.96
2016-06-17T01:14:58.278Z,988.91
2016-06-17T01:15:58.297Z,988.89
2016-06-17T01:16:58.331Z,988.86
2016-06-17T01:17:58.350Z,988.89
2016-06-17T01:18:58.385Z,988.89
2016-06-17T01:19:58.404Z,988.92
2016-06-17T01:20:58.424Z,988.95
2016-06-17T01:21:58.459Z,988.93
2016-06-17T01:22:58.476Z,988.94
2016-06-17T01:23:58.513Z,988.95
2016-06-17T01:24:58.530Z,988.91
2016-06-17T01:25:58.566Z,988.9
2016-06-17T01:26:58.585Z,988.86
2016-06-17T01:27:58.604Z,988.85
2016-06-17T01:28:58.654Z,988.8
2016-06-17T01:29:58.658Z,988.77
2016-06-17T01:30:58.692Z,988.81
2016-06-17T01:31:58.712Z,988.76
2016-06-17T01:32:58.747Z,988.76
2016-06-17T01:33:58.764Z,988.73
2016-06-17T01:34:58.784Z,988.75
2016-06-17T01:35:58.819Z,988.75
2016-06-17T01:36:58.839Z,988.76
2016-06-17T01:37:58.873Z,988.76
2016-06-17T01:38:58.893Z,988.76
2016-06-17T01:39:58.942Z,988.78
2016-06-17T01:40:58.946Z,988.82
2016-06-17T01:41:58.965Z,988.86
2016-06-17T01:42:59.000Z,988.89
2016-06-17T01:43:59.019Z,988.88
2016-06-17T01:44:59.038Z,988.89
2016-06-17T01:45:59.072Z,988.94
2016-06-17T01:46:59.092Z,988.92
2016-06-17T01:47:59.127Z,988.91
2016-06-17T01:48:59.145Z,988.95
2016-06-17T01:49:59.164Z,988.93
2016-06-17T01:50:59.199Z,988.96
2016-06-17T01:51:59.218Z,988.97
2016-06-17T01:52:59.253Z,988.95
2016-06-17T01:53:59.272Z,988.98
2016-06-17T01:54:59.322Z,988.99
2016-06-17T01:55:59.326Z,988.98
2016-06-17T01:56:59.347Z,988.98
2016-06-17T01:57:59.384Z,988.95
2016-06-17T01:58:59.403Z,988.98
2016-06-17T01:59:59.440Z,988.99
2016-06-17T02:00:59.460Z,988.98
2016-06-17T02:01:59.495Z,988.99
2016-06-17T02:02:59.515Z,988.98
2016-06-17T02:03:59.535Z,989.02
2016-06-17T02:04:59.553Z,989.06
2016-06-17T02:05:59.589Z,989.06
2016-06-17T02:06:59.608Z,989.08
2016-06-17T02:07:59.643Z,989.06
2016-06-17T02:08:59.663Z,989.06
2016-06-17T02:09:59.697Z,989.07
2016-06-17T02:10:59.717Z,989.08
2016-06-17T02:11:59.752Z,989.07
2016-06-17T02:12:59.772Z,989.1
2016-06-17T02:13:59.789Z,989.12
2016-06-17T02:14:59.809Z,989.14
2016-06-17T02:15:59.843Z,989.11
2016-06-17T02:16:59.863Z,989.11
2016-06-17T02:17:59.898Z,989.09
2016-06-17T02:18:59.917Z,989.07
2016-06-17T02:19:59.935Z,989.04
2016-06-17T02:20:59.971Z,989.04
2016-06-17T02:21:59.990Z,989.07
2016-06-17T02:23:00.008Z,989.05
2016-06-17T02:24:00.043Z,989.04
2016-06-17T02:25:00.078Z,989.06
2016-06-17T02:26:00.097Z,989.07
2016-06-17T02:27:00.117Z,989.04
2016-06-17T02:28:00.136Z,989.06
2016-06-17T02:29:00.185Z,989.05
2016-06-17T02:30:00.189Z,989.03
2016-06-17T02:31:00.224Z,989.05
2016-06-17T02:32:00.243Z,989.03
2016-06-17T02:33:00.263Z,989.03
2016-06-17T02:34:00.280Z,989.08
2016-06-17T02:35:00.316Z,989.08
2016-06-17T02:36:00.335Z,989.08
2016-06-17T02:37:00.370Z,989.07
2016-06-17T02:38:00.388Z,989.09
2016-06-17T02:39:00.408Z,989.08
2016-06-17T02:40:00.443Z,989.06
2016-06-17T02:41:00.462Z,989.02
2016-06-17T02:42:00.481Z,989.03
2016-06-17T02:43:00.515Z,989.03
2016-06-17T02:44:00.534Z,989
2016-06-17T02:45:00.569Z,988.99
2016-06-17T02:46:00.589Z,988.99
2016-06-17T02:47:00.608Z,988.95
2016-06-17T02:48:00.642Z,988.94
2016-06-17T02:49:00.661Z,988.96
2016-06-17T02:50:00.680Z,988.98
2016-06-17T02:51:00.715Z,989
2016-06-17T02:52:00.734Z,988.97
2016-06-17T02:53:00.753Z,988.95
2016-06-17T02:54:00.788Z,988.94
2016-06-17T02:55:00.807Z,988.92
2016-06-17T02:56:00.826Z,988.92
2016-06-17T02:57:00.860Z,988.91
2016-06-17T02:58:00.880Z,988.92
2016-06-17T02:59:00.899Z,988.95
2016-06-17T03:00:00.934Z,988.87
2016-06-17T03:01:00.952Z,988.9
2016-06-17T03:02:00.972Z,988.93
2016-06-17T03:03:01.006Z,988.88
2016-06-17T03:04:01.026Z,988.87
2016-06-17T03:05:01.045Z,988.84
2016-06-17T03:06:01.080Z,988.82
2016-06-17T03:07:01.098Z,988.87
2016-06-17T03:08:01.133Z,988.86
2016-06-17T03:09:01.152Z,988.88
2016-06-17T03:10:01.171Z,988.87
2016-06-17T03:11:01.206Z,988.85
2016-06-17T03:12:01.225Z,988.87
2016-06-17T03:13:01.244Z,988.85
2016-06-17T03:14:01.279Z,988.84
2016-06-17T03:15:01.298Z,988.85
2016-06-17T03:16:01.317Z,988.79
2016-06-17T03:17:01.352Z,988.8
2016-06-17T03:18:01.371Z,988.77
2016-06-17T03:19:01.389Z,988.79
2016-06-17T03:20:01.425Z,988.77
2016-06-17T03:21:01.443Z,988.75
2016-06-17T03:22:01.463Z,988.74
2016-06-17T03:23:01.498Z,988.74
2016-06-17T03:24:01.517Z,988.75
2016-06-17T03:25:01.535Z,988.74
2016-06-17T03:26:01.571Z,988.76
2016-06-17T03:27:01.589Z,988.84
2016-06-17T03:28:01.609Z,988.78
2016-06-17T03:29:01.643Z,988.83
2016-06-17T03:30:01.663Z,988.84
2016-06-17T03:31:01.681Z,988.86
2016-06-17T03:32:01.716Z,988.87
2016-06-17T03:33:01.735Z,988.88
2016-06-17T03:34:01.754Z,988.9
2016-06-17T03:35:01.788Z,988.9
2016-06-17T03:36:01.809Z,988.91
2016-06-17T03:37:01.826Z,988.96
2016-06-17T03:38:01.862Z,988.96
2016-06-17T03:39:01.881Z,988.96
2016-06-17T03:40:01.901Z,989
2016-06-17T03:41:01.934Z,989
2016-06-17T03:42:01.954Z,989.03
2016-06-17T03:43:01.988Z,988.97
2016-06-17T03:44:02.008Z,989.03
2016-06-17T03:45:02.027Z,989.06
2016-06-17T03:46:02.046Z,989.03
2016-06-17T03:47:02.081Z,989.03
2016-06-17T03:48:02.100Z,989.05
2016-06-17T03:49:02.119Z,989.1
2016-06-17T03:50:02.153Z,989.11
2016-06-17T03:51:02.172Z,989.11
2016-06-17T03:52:02.192Z,989.05
2016-06-17T03:53:02.211Z,989.08
2016-06-17T03:54:02.246Z,989.1
2016-06-17T03:55:02.264Z,989.13
2016-06-17T03:56:02.299Z,989.1
2016-06-17T03:57:02.318Z,989.08
2016-06-17T03:58:02.354Z,989.09
2016-06-17T03:59:02.357Z,989.11
2016-06-17T04:00:02.391Z,989.13
2016-06-17T04:01:02.410Z,989.18
2016-06-17T04:02:02.429Z,989.17
2016-06-17T04:03:02.464Z,989.25
2016-06-17T04:04:02.483Z,989.21
2016-06-17T04:05:02.502Z,989.26
2016-06-17T04:06:02.537Z,989.25
2016-06-17T04:07:02.556Z,989.27
2016-06-17T04:08:02.575Z,989.23
2016-06-17T04:09:02.594Z,989.26
2016-06-17T04:10:02.629Z,989.22
2016-06-17T04:11:02.648Z,989.19
2016-06-17T04:12:02.667Z,989.19
2016-06-17T04:13:02.704Z,989.21
2016-06-17T04:14:02.727Z,989.22
2016-06-17T04:15:02.765Z,989.16
2016-06-17T04:16:02.788Z,989.13
2016-06-17T04:17:02.810Z,989.11
2016-06-17T04:18:02.831Z,989.09
2016-06-17T04:19:02.866Z,989.06
2016-06-17T04:20:02.887Z,989.15
2016-06-17T04:21:02.907Z,989.13
2016-06-17T04:22:02.927Z,989.17
2016-06-17T04:23:02.964Z,989.14
2016-06-17T04:24:02.998Z,989.18
2016-06-17T04:25:03.002Z,989.19
2016-06-17T04:26:03.037Z,989.17
2016-06-17T04:27:03.056Z,989.12
2016-06-17T04:28:03.091Z,989.09
2016-06-17T04:29:03.111Z,989.07
2016-06-17T04:30:03.130Z,989.08
2016-06-17T04:31:03.150Z,989.1
2016-06-17T04:32:03.184Z,989.06
2016-06-17T04:33:03.205Z,989.05
2016-06-17T04:34:03.238Z,989.08
2016-06-17T04:35:03.258Z,989.06
2016-06-17T04:36:03.277Z,989.05
2016-06-17T04:37:03.297Z,989.05
2016-06-17T04:38:03.314Z,989.06
2016-06-17T04:39:03.350Z,989.07
2016-06-17T04:40:03.368Z,989.06
2016-06-17T04:41:03.388Z,989.07
2016-06-17T04:42:03.423Z,989.09
2016-06-17T04:43:03.441Z,989.07
2016-06-17T04:44:03.460Z,989.11
2016-06-17T04:45:03.479Z,989.11
2016-06-17T04:46:03.515Z,989.12
2016-06-17T04:47:03.534Z,989.09
2016-06-17T04:48:03.554Z,989.12
2016-06-17T04:49:03.587Z,989.14
2016-06-17T04:50:03.606Z,989.09
2016-06-17T04:51:03.625Z,989.12
2016-06-17T04:52:03.645Z,989.13
2016-06-17T04:53:03.680Z,989.12
2016-06-17T04:54:03.699Z,989.16
2016-06-17T04:55:03.717Z,989.14
2016-06-17T04:56:03.752Z,989.13
2016-06-17T04:57:03.788Z,989.09
2016-06-17T04:58:03.806Z,989.11
2016-06-17T04:59:03.826Z,989.13
2016-06-17T05:00:03.844Z,989.07
2016-06-17T05:01:03.863Z,989.04
2016-06-17T05:02:03.898Z,989.09
2016-06-17T05:03:03.917Z,989.03
2016-06-17T05:04:03.937Z,988.99
2016-06-17T05:05:03.955Z,988.95
2016-06-17T05:06:03.990Z,988.95
2016-06-17T05:07:04.009Z,988.93
2016-06-17T05:08:04.029Z,988.96
2016-06-17T05:09:04.047Z,988.97
2016-06-17T05:10:04.083Z,988.99
2016-06-17T05:11:04.100Z,989.03
2016-06-17T05:12:04.120Z,989.05
2016-06-17T05:13:04.155Z,989.07
2016-06-17T05:14:04.174Z,989.07
2016-06-17T05:15:04.209Z,989.08
2016-06-17T05:16:04.228Z,989.06
2016-06-17T05:17:04.246Z,989.03
2016-06-17T05:18:04.266Z,989.02
2016-06-17T05:19:04.300Z,989.03
2016-06-17T05:20:04.320Z,989.01
2016-06-17T05:21:04.339Z,988.98
2016-06-17T05:22:04.357Z,989.01
2016-06-17T05:23:04.392Z,989.01
2016-06-17T05:24:04.411Z,989
2016-06-17T05:25:04.431Z,989.02
2016-06-17T05:26:04.466Z,988.99
2016-06-17T05:27:04.500Z,989.06
2016-06-17T05:28:04.504Z,989.05
2016-06-17T05:29:04.538Z,989.08
2016-06-17T05:30:04.558Z,989.11
2016-06-17T05:31:04.608Z,989.11
2016-06-17T05:32:04.627Z,989.1
2016-06-17T05:33:04.630Z,989.15
2016-06-17T05:34:04.649Z,989.15
2016-06-17T05:35:04.669Z,989.12
2016-06-17T05:36:04.703Z,989.13
2016-06-17T05:37:04.723Z,989.14
2016-06-17T05:38:04.741Z,989.11
2016-06-17T05:39:04.776Z,989.13
2016-06-17T05:40:04.795Z,989.16
2016-06-17T05:41:04.814Z,989.13
2016-06-17T05:42:04.833Z,989.16
2016-06-17T05:43:04.868Z,989.17
2016-06-17T05:44:04.887Z,989.14
2016-06-17T05:45:04.906Z,989.17
2016-06-17T05:46:04.941Z,989.18
2016-06-17T05:47:04.960Z,989.17
2016-06-17T05:48:04.979Z,989.15
2016-06-17T05:49:05.014Z,989.19
2016-06-17T05:50:05.033Z,989.18
2016-06-17T05:51:05.052Z,989.18
2016-06-17T05:52:05.070Z,989.15
2016-06-17T05:53:05.106Z,989.2
2016-06-17T05:54:05.124Z,989.18
2016-06-17T05:55:05.160Z,989.19
2016-06-17T05:56:05.178Z,989.23
2016-06-17T05:57:05.198Z,989.21
2016-06-17T05:58:05.216Z,989.2
2016-06-17T05:59:05.251Z,989.23
2016-06-17T06:00:05.287Z,989.23
2016-06-17T06:01:05.289Z,989.24
2016-06-17T06:02:05.324Z,989.25
2016-06-17T06:03:05.344Z,989.29
2016-06-17T06:04:05.362Z,989.28
2016-06-17T06:05:05.397Z,989.3
2016-06-17T06:06:05.415Z,989.28
2016-06-17T06:07:05.435Z,989.31
2016-06-17T06:08:05.470Z,989.27
2016-06-17T06:09:05.490Z,989.27
2016-06-17T06:10:05.507Z,989.3
2016-06-17T06:11:05.527Z,989.32
2016-06-17T06:12:05.561Z,989.32
2016-06-17T06:13:05.581Z,989.22
2016-06-17T06:14:05.616Z,989.26
2016-06-17T06:15:05.635Z,989.21
2016-06-17T06:16:05.653Z,989.25
2016-06-17T06:17:05.673Z,989.21
2016-06-17T06:18:05.707Z,989.25
2016-06-17T06:19:05.727Z,989.26
2016-06-17T06:20:05.747Z,989.27
2016-06-17T06:21:05.764Z,989.24
2016-06-17T06:22:05.800Z,989.27
2016-06-17T06:23:05.818Z,989.28
2016-06-17T06:24:05.838Z,989.24
2016-06-17T06:25:05.873Z,989.28
2016-06-17T06:26:05.892Z,989.26
2016-06-17T06:27:05.911Z,989.27
2016-06-17T06:28:05.945Z,989.26
2016-06-17T06:29:05.965Z,989.27
2016-06-17T06:30:05.989Z,989.33
2016-06-17T06:31:06.013Z,989.28
2016-06-17T06:32:06.053Z,989.3
2016-06-17T06:33:06.077Z,989.28
2016-06-17T06:34:06.101Z,989.29
2016-06-17T06:35:06.137Z,989.35
2016-06-17T06:36:06.158Z,989.34
2016-06-17T06:37:06.178Z,989.4
2016-06-17T06:38:06.214Z,989.37
2016-06-17T06:39:06.235Z,989.4
2016-06-17T06:40:06.255Z,989.39
2016-06-17T06:41:06.275Z,989.39
2016-06-17T06:42:06.310Z,989.44
2016-06-17T06:43:06.330Z,989.43
2016-06-17T06:44:06.350Z,989.44
2016-06-17T06:45:06.384Z,989.44
2016-06-17T06:46:06.404Z,989.44
2016-06-17T06:47:06.438Z,989.46
2016-06-17T06:48:06.458Z,989.48
2016-06-17T06:49:06.476Z,989.43
2016-06-17T06:50:06.495Z,989.45
2016-06-17T06:51:06.530Z,989.42
2016-06-17T06:52:06.549Z,989.45
2016-06-17T06:53:06.568Z,989.45
2016-06-17T06:54:06.604Z,989.47
2016-06-17T06:55:06.622Z,989.44
2016-06-17T06:56:06.642Z,989.46
2016-06-17T06:57:06.675Z,989.48
2016-06-17T06:58:06.695Z,989.48
2016-06-17T06:59:06.714Z,989.48
2016-06-17T07:00:06.733Z,989.52
2016-06-17T07:01:06.768Z,989.51
2016-06-17T07:02:06.787Z,989.54
2016-06-17T07:03:06.806Z,989.52
2016-06-17T07:04:06.840Z,989.54
2016-06-17T07:05:06.859Z,989.53
2016-06-17T07:06:06.879Z,989.56
2016-06-17T07:07:06.914Z,989.59
2016-06-17T07:08:06.932Z,989.61
2016-06-17T07:09:06.952Z,989.59
2016-06-17T07:10:06.970Z,989.59
2016-06-17T07:11:07.005Z,989.59
2016-06-17T07:12:07.025Z,989.57
2016-06-17T07:13:07.044Z,989.61
2016-06-17T07:14:07.079Z,989.59
2016-06-17T07:15:07.098Z,989.6
2016-06-17T07:16:07.116Z,989.55
2016-06-17T07:17:07.151Z,989.58
2016-06-17T07:18:07.171Z,989.57
2016-06-17T07:19:07.189Z,989.6
2016-06-17T07:20:07.225Z,989.6
2016-06-17T07:21:07.243Z,989.63
2016-06-17T07:22:07.262Z,989.63
2016-06-17T07:23:07.297Z,989.62
2016-06-17T07:24:07.317Z,989.62
2016-06-17T07:25:07.336Z,989.64
2016-06-17T07:26:07.370Z,989.61
2016-06-17T07:27:07.389Z,989.63
2016-06-17T07:28:07.424Z,989.71
2016-06-17T07:29:07.428Z,989.67
2016-06-17T07:30:07.461Z,989.66
2016-06-17T07:31:07.482Z,989.69
2016-06-17T07:32:07.499Z,989.7
2016-06-17T07:33:07.535Z,989.7
2016-06-17T07:34:07.554Z,989.72
2016-06-17T07:35:07.574Z,989.73
2016-06-17T07:36:07.608Z,989.73
2016-06-17T07:37:07.642Z,989.72
2016-06-17T07:38:07.645Z,989.73
2016-06-17T07:39:07.681Z,989.75
2016-06-17T07:40:07.699Z,989.74
2016-06-17T07:41:07.719Z,989.77
2016-06-17T07:42:07.754Z,989.78
2016-06-17T07:43:07.772Z,989.79
2016-06-17T07:44:07.791Z,989.85
2016-06-17T07:45:07.827Z,989.84
2016-06-17T07:46:07.845Z,989.9
2016-06-17T07:47:07.865Z,989.89
2016-06-17T07:48:07.899Z,989.94
2016-06-17T07:49:07.919Z,989.91
2016-06-17T07:50:07.937Z,989.87
2016-06-17T07:51:07.956Z,989.93
2016-06-17T07:52:07.991Z,989.98
2016-06-17T07:53:08.011Z,989.94
2016-06-17T07:54:08.029Z,989.94
2016-06-17T07:55:08.064Z,989.93
2016-06-17T07:56:08.083Z,989.94
2016-06-17T07:57:08.102Z,989.99
2016-06-17T07:58:08.137Z,989.97
2016-06-17T07:59:08.156Z,989.99
2016-06-17T08:00:08.175Z,989.95
2016-06-17T08:05:45.400Z,990.08
2016-06-17T08:06:45.372Z,990.08
2016-06-17T08:07:45.391Z,990.08
2016-06-17T08:08:45.426Z,990.12
2016-06-17T08:09:45.444Z,990.13
2016-06-17T08:10:45.464Z,990.13
2016-06-17T08:11:45.484Z,990.13
2016-06-17T08:12:45.517Z,990.11
2016-06-17T08:13:45.536Z,990.15
2016-06-17T08:14:45.555Z,990.16
2016-06-17T08:15:45.590Z,990.2
2016-06-17T08:16:45.609Z,990.21
2016-06-17T08:17:45.629Z,990.2
2016-06-17T08:18:45.679Z,990.26
2016-06-17T08:19:45.682Z,990.29
2016-06-17T08:20:45.701Z,990.24
2016-06-17T08:21:45.736Z,990.28
2016-06-17T08:22:45.755Z,990.28
2016-06-17T08:23:45.775Z,990.3
2016-06-17T08:24:45.809Z,990.34
2016-06-17T08:25:45.828Z,990.32
2016-06-17T08:26:45.847Z,990.4
2016-06-17T08:27:45.867Z,990.46
2016-06-17T08:28:45.901Z,990.49
2016-06-17T08:29:45.921Z,990.49
2016-06-17T08:30:45.939Z,990.51
2016-06-17T08:31:45.974Z,990.48
2016-06-17T08:32:46.103Z,990.47
2016-06-17T08:33:46.013Z,990.49
2016-06-17T08:34:46.048Z,990.51
2016-06-17T08:35:46.066Z,990.55
2016-06-17T08:36:46.085Z,990.55
2016-06-17T08:37:46.120Z,990.61
2016-06-17T08:38:46.170Z,990.57
2016-06-17T08:39:46.159Z,990.6
2016-06-17T08:40:46.365Z,990.6
2016-06-17T08:41:46.212Z,990.68
2016-06-17T08:42:46.247Z,990.62
2016-06-17T08:43:46.265Z,990.65
2016-06-17T08:44:21.062Z,990.73
2016-06-17T08:45:21.051Z,990.73
2016-06-17T08:46:21.085Z,990.72
2016-06-17T08:47:21.106Z,990.69
2016-06-17T08:48:21.140Z,990.79
2016-06-17T08:49:21.175Z,990.75
2016-06-17T08:50:21.194Z,990.76
2016-06-17T08:51:21.198Z,990.81
2016-06-17T08:52:21.233Z,990.81
2016-06-17T08:53:21.253Z,990.83
2016-06-17T08:54:21.270Z,990.85
2016-06-17T08:55:21.305Z,990.88
2016-06-17T08:56:21.325Z,990.89
2016-06-17T08:57:21.344Z,990.9
2016-06-17T08:58:21.380Z,990.92
2016-06-17T08:59:21.398Z,990.95
2016-06-17T09:00:21.417Z,990.95
2016-06-17T09:01:21.451Z,990.95
2016-06-17T09:02:21.471Z,990.93
2016-06-17T09:03:21.491Z,990.96
2016-06-17T09:04:21.525Z,990.98
2016-06-17T09:05:21.545Z,990.99
2016-06-17T09:06:21.563Z,990.96
2016-06-17T09:07:21.597Z,990.97
2016-06-17T09:08:21.617Z,990.98
2016-06-17T09:09:21.636Z,991.04
2016-06-17T09:16:21.876Z,991.1
2016-06-17T09:17:21.818Z,991.12
2016-06-17T09:24:19.097Z,991.15
2016-06-17T09:25:19.132Z,991.15
2016-06-17T09:26:19.136Z,991.14
2016-06-17T09:27:19.140Z,991.2
2016-06-17T09:28:19.143Z,991.23
2016-06-17T09:29:19.162Z,991.22
2016-06-17T09:30:19.134Z,991.18
2016-06-17T09:31:19.153Z,991.2
2016-06-17T09:32:19.172Z,991.22
2016-06-17T09:33:19.207Z,991.26
2016-06-17T09:34:19.242Z,991.21
2016-06-17T09:35:19.261Z,991.25
2016-06-17T09:36:19.280Z,991.29
2016-06-17T09:37:19.299Z,991.26
2016-06-17T09:38:19.334Z,991.26
2016-06-17T09:39:19.353Z,991.25
2016-06-17T09:40:19.372Z,991.25
2016-06-17T09:41:19.408Z,991.27
2016-06-17T09:42:19.428Z,991.29
2016-06-17T09:43:19.449Z,991.28
2016-06-17T09:44:19.485Z,991.32
2016-06-17T09:45:19.505Z,991.33
2016-06-17T09:46:19.572Z,991.29
2016-06-17T09:47:19.560Z,991.31
2016-06-17T09:48:19.579Z,991.33
2016-06-17T09:49:19.615Z,991.39
2016-06-17T09:50:19.634Z,991.41
2016-06-17T09:51:19.653Z,991.41
2016-06-17T09:52:19.688Z,991.41
2016-06-17T09:53:19.707Z,991.44
2016-06-17T09:54:19.726Z,991.45
2016-06-17T09:55:19.761Z,991.42
2016-06-17T09:56:19.780Z,991.49
2016-06-17T09:57:19.798Z,991.52
2016-06-17T09:58:19.837Z,991.5
2016-06-17T09:59:19.858Z,991.52
2016-06-17T10:00:19.895Z,991.53
2016-06-17T10:01:19.917Z,991.59
2016-06-17T10:02:19.938Z,991.58
2016-06-17T10:03:19.974Z,991.54
2016-06-17T10:04:19.995Z,991.57
2016-06-17T10:05:20.014Z,991.58
2016-06-17T10:06:20.050Z,991.62
2016-06-17T10:07:20.069Z,991.63
2016-06-17T10:08:20.103Z,991.63
2016-06-17T10:09:20.124Z,991.69
2016-06-17T10:10:20.144Z,991.69
2016-06-17T10:11:20.179Z,991.71
2016-06-17T10:12:20.198Z,991.66
2016-06-17T10:13:20.217Z,991.74
2016-06-17T10:14:20.251Z,991.74
2016-06-17T10:15:20.272Z,991.78
2016-06-17T10:16:20.307Z,991.8
2016-06-17T10:17:20.327Z,991.79
2016-06-17T10:18:20.347Z,991.8
2016-06-17T10:19:20.382Z,991.76
2016-06-17T10:20:20.401Z,991.79
2016-06-17T10:21:20.437Z,991.78
2016-06-17T10:22:20.456Z,991.82
2016-06-17T10:23:20.476Z,991.83
2016-06-17T10:24:20.527Z,991.84
2016-06-17T10:25:20.577Z,991.82
2016-06-17T10:26:20.564Z,991.86
2016-06-17T10:27:20.584Z,991.86
2016-06-17T10:28:20.603Z,991.85
2016-06-17T10:29:20.638Z,991.86
2016-06-17T10:30:20.672Z,991.89
2016-06-17T10:31:20.707Z,991.94
2016-06-17T10:32:20.710Z,991.92
2016-06-17T10:33:20.744Z,991.93
2016-06-17T10:34:20.764Z,991.96
2016-06-17T10:35:20.799Z,991.97
2016-06-17T10:36:20.818Z,992
2016-06-17T10:37:20.837Z,992.01
2016-06-17T10:38:20.856Z,992.05
2016-06-17T10:39:20.891Z,992
2016-06-17T10:40:20.910Z,992.08
2016-06-17T10:41:20.944Z,992.08
2016-06-17T10:42:20.964Z,992.07
2016-06-17T10:43:20.999Z,992.04
2016-06-17T10:44:21.018Z,992.12
2016-06-17T10:45:21.036Z,992.11
2016-06-17T10:46:21.072Z,992.12
2016-06-17T10:47:21.090Z,992.05
2016-06-17T10:48:21.109Z,992.12
2016-06-17T10:49:21.145Z,992.12
2016-06-17T10:50:21.165Z,992.14
2016-06-17T10:51:21.200Z,992.14
2016-06-17T10:52:21.220Z,992.15
2016-06-17T10:53:21.255Z,992.18
2016-06-17T10:54:21.275Z,992.17
2016-06-17T10:55:21.310Z,992.17
2016-06-17T10:56:21.328Z,992.14
2016-06-17T10:57:21.347Z,992.13
2016-06-17T10:58:21.381Z,992.13
2016-06-17T10:59:21.401Z,992.12
2016-06-17T11:00:21.436Z,992.1
2016-06-17T11:01:21.470Z,992.15
2016-06-17T11:02:21.490Z,992.17
2016-06-17T11:03:21.509Z,992.17
2016-06-17T11:04:21.543Z,992.19
2016-06-17T11:05:21.563Z,992.2
2016-06-17T11:06:21.581Z,992.25
2016-06-17T11:07:21.613Z,992.22
2016-06-17T11:08:21.632Z,992.25
2016-06-17T11:09:21.665Z,992.21
2016-06-17T11:10:21.684Z,992.21
2016-06-17T11:11:21.702Z,992.27
2016-06-17T11:12:21.737Z,992.25
2016-06-17T11:13:21.755Z,992.25
2016-06-17T11:14:21.790Z,992.25
2016-06-17T11:15:21.949Z,992.25
2016-06-17T11:16:21.933Z,992.27
2016-06-17T11:17:21.987Z,992.27
2016-06-17T11:18:21.990Z,992.32
2016-06-17T11:19:22.010Z,992.32
2016-06-17T11:20:22.010Z,992.32
2016-06-17T11:21:21.998Z,992.33
2016-06-17T11:22:22.063Z,992.36
2016-06-17T11:23:22.082Z,992.4
2016-06-17T11:24:22.086Z,992.41
2016-06-17T11:25:22.230Z,992.4
2016-06-17T11:26:22.093Z,992.5
2016-06-17T11:27:22.221Z,992.45
2016-06-17T11:28:22.240Z,992.46
2016-06-17T11:29:22.275Z,992.49
2016-06-17T11:30:22.262Z,992.54
2016-06-17T11:31:22.251Z,992.5
2016-06-17T11:32:22.285Z,992.49
2016-06-17T11:33:22.304Z,992.5
2016-06-17T11:34:22.309Z,992.48
2016-06-17T11:35:22.343Z,992.5
2016-06-17T11:36:22.362Z,992.49
2016-06-17T11:37:22.397Z,992.5
2016-06-17T11:38:22.415Z,992.52
2016-06-17T11:39:22.451Z,992.5
2016-06-17T11:40:22.470Z,992.53
2016-06-17T11:41:22.504Z,992.54
2016-06-17T11:42:22.523Z,992.51
2016-06-17T11:43:22.556Z,992.53
2016-06-17T11:44:22.575Z,992.56
2016-06-17T11:45:22.610Z,992.52
2016-06-17T11:46:22.629Z,992.54
2016-06-17T11:47:22.663Z,992.53
2016-06-17T11:48:22.681Z,992.59
2016-06-17T11:49:22.716Z,992.58
2016-06-17T11:50:22.735Z,992.57
2016-06-17T11:51:22.769Z,992.59
2016-06-17T11:52:22.789Z,992.59
2016-06-17T11:53:22.807Z,992.61
2016-06-17T11:54:22.841Z,992.6
2016-06-17T11:55:22.877Z,992.59
2016-06-17T11:56:22.896Z,992.62
2016-06-17T11:57:22.931Z,992.6
2016-06-17T11:58:22.950Z,992.66
2016-06-17T11:59:22.984Z,992.63
2016-06-17T12:00:23.003Z,992.64
2016-06-17T12:01:23.038Z,992.64
2016-06-17T12:02:23.057Z,992.66
2016-06-17T12:03:23.092Z,992.65
2016-06-17T12:04:23.112Z,992.67
2016-06-17T12:05:23.146Z,992.62
2016-06-17T12:06:23.165Z,992.62
2016-06-17T12:07:23.200Z,992.64
2016-06-17T12:08:23.219Z,992.67
2016-06-17T12:09:23.254Z,992.67
2016-06-17T12:10:23.272Z,992.66
2016-06-17T12:11:23.308Z,992.72
2016-06-17T12:12:23.326Z,992.67
2016-06-17T12:13:23.361Z,992.67
2016-06-17T12:14:23.396Z,992.69
2016-06-17T12:15:23.415Z,992.74
2016-06-17T12:16:23.438Z,992.75
2016-06-17T12:17:23.475Z,992.79
2016-06-17T12:18:23.497Z,992.82
2016-06-17T12:19:23.535Z,992.77
2016-06-17T12:20:23.555Z,992.79
2016-06-17T12:21:23.592Z,992.84
2016-06-17T12:22:23.612Z,992.85
2016-06-17T12:23:23.648Z,992.96
2016-06-17T12:24:23.668Z,992.96
2016-06-17T12:25:23.703Z,992.97
2016-06-17T12:26:23.722Z,993.06
2016-06-17T12:27:23.758Z,992.97
2016-06-17T12:28:23.793Z,992.98
2016-06-17T12:29:23.813Z,993.01
2016-06-17T12:30:23.832Z,992.98
2016-06-17T12:31:23.866Z,992.99
2016-06-17T12:32:23.886Z,993.01
2016-06-17T12:33:23.919Z,993.06
2016-06-17T12:34:23.955Z,993.1
2016-06-17T12:35:23.974Z,993.05
2016-06-17T12:36:24.008Z,993.06
2016-06-17T12:37:24.028Z,993.12
2016-06-17T12:38:24.062Z,993.16
2016-06-17T12:39:24.081Z,993.09
2016-06-17T12:40:24.116Z,993.08
2016-06-17T12:41:24.136Z,993.1
2016-06-17T12:42:24.170Z,993.05
2016-06-17T12:43:24.189Z,993.1
2016-06-17T12:44:24.224Z,993.07
2016-06-17T12:45:24.258Z,993.07
2016-06-17T12:46:24.278Z,993.09
2016-06-17T12:47:24.312Z,993.08
2016-06-17T12:48:24.331Z,993.1